Search for airport 
image banner adimage banner adimage banner ad
image banner ad

30PN - Pittsburgh Children's Hospital

Located in Pittsburgh, United States

ICAO - 30PN, IATA -

Data provided by Airmate  

General information

Coordinates: N40°27'60" W79°57'10"
Elevation is 1088 feet MSL.
Magnetic variation is -09° East
View others Airports in Pennsylvania

Operational data

Special qualification required
Current time UTC:
Current local time:
Weather at : KAGC - Allegheny County ( 13 km )
METAR: KAGC 091308Z 09006KT 3SM -RA BR BKN042 OVC060 05/03 A3001 RMK AO2 P0004 T00500033
TAF: KAGC 091120Z 0912/1012 16005KT P6SM -RA OVC040 FM091400 12007KT 4SM -RA OVC030 FM091600 09008KT 3SM RA OVC007 FM092300 01005KT 4SM -SHRA OVC009 FM100500 35006KT 5SM BR OVC004 FM101000 32006KT P6SM BKN010
View NOTAMs / SUP AIP / TFR affecting this airport [VIEW]
Communications frequencies: [VIEW]

Runways:

Airport contact information

Address: Pittsburgh United States

Satellite view of 30PN